AWW43KP LFMN-EGFF
Flight info
| Callsign | AWW43KP |
|---|---|
| Flight time | 1h 45m |
| Altitude | 34000 |
| Route | BADOD DCT NEDRU DCT LTP DCT BULOL DCT IDAVO DCT BAGBI DCT SIZZA DCT LAULY DCT BRY DCT CLM DCT KOPOR DCT KESAX DCT KUNAV T421 ICTAM |
| Aircraft | A319/M-SDE3FGHIRWY/LB1 |
Departure
| Time | 2026-05-08 09:43 |
|---|---|
| Airport | Nice-Côte d'Azur Airport (LFMN) |
Arrival
| Time | 2026-05-08 11:29 |
|---|---|
| Airport | Cardiff International Airport (EGFF) |
| Time | Latitude | Longitude | Altitude | Speed | Heading |
|---|---|---|---|---|---|
| 2026-05-08 09:30 | 43.66119 | 7.20687 | 22 ft | 0 kts | 261° |
| 2026-05-08 09:32 | 43.66120 | 7.20691 | 22 ft | 3 kts | 261° |
| 2026-05-08 09:32 | 43.66124 | 7.20727 | 24 ft | 4 kts | 258° |
| 2026-05-08 09:33 | 43.66131 | 7.20763 | 25 ft | 4 kts | 244° |
| 2026-05-08 09:33 | 43.66145 | 7.20787 | 24 ft | 4 kts | 186° |
| 2026-05-08 09:33 | 43.66151 | 7.20788 | 24 ft | 0 kts | 171° |
| 2026-05-08 09:35 | 43.66149 | 7.20788 | 24 ft | 2 kts | 171° |
| 2026-05-08 09:35 | 43.66117 | 7.20796 | 23 ft | 11 kts | 171° |
| 2026-05-08 09:35 | 43.65987 | 7.20825 | 23 ft | 14 kts | 171° |
| 2026-05-08 09:36 | 43.65923 | 7.20839 | 22 ft | 14 kts | 171° |
| 2026-05-08 09:36 | 43.65798 | 7.20880 | 24 ft | 14 kts | 131° |
| 2026-05-08 09:36 | 43.65836 | 7.20982 | 22 ft | 13 kts | 45° |
| 2026-05-08 09:36 | 43.65901 | 7.21074 | 22 ft | 13 kts | 46° |
| 2026-05-08 09:37 | 43.65967 | 7.21165 | 22 ft | 14 kts | 44° |
| 2026-05-08 09:37 | 43.66036 | 7.21259 | 22 ft | 14 kts | 45° |
| 2026-05-08 09:37 | 43.66081 | 7.21322 | 22 ft | 14 kts | 45° |
| 2026-05-08 09:37 | 43.66150 | 7.21419 | 22 ft | 14 kts | 45° |
| 2026-05-08 09:38 | 43.66221 | 7.21513 | 22 ft | 14 kts | 44° |
| 2026-05-08 09:38 | 43.66292 | 7.21610 | 22 ft | 14 kts | 45° |
| 2026-05-08 09:38 | 43.66386 | 7.21742 | 22 ft | 15 kts | 45° |
| 2026-05-08 09:38 | 43.66458 | 7.21841 | 22 ft | 15 kts | 45° |
| 2026-05-08 09:39 | 43.66531 | 7.21941 | 23 ft | 15 kts | 45° |
| 2026-05-08 09:39 | 43.66580 | 7.22009 | 22 ft | 15 kts | 45° |
| 2026-05-08 09:39 | 43.66654 | 7.22111 | 22 ft | 15 kts | 44° |
| 2026-05-08 09:39 | 43.66730 | 7.22214 | 22 ft | 15 kts | 45° |
| 2026-05-08 09:40 | 43.66805 | 7.22319 | 22 ft | 16 kts | 45° |
| 2026-05-08 09:40 | 43.66851 | 7.22383 | 22 ft | 0 kts | 45° |
| 2026-05-08 09:40 | 43.66851 | 7.22384 | 22 ft | 0 kts | 49° |
| 2026-05-08 09:40 | 43.66850 | 7.22388 | 22 ft | 1 kts | 89° |
| 2026-05-08 09:41 | 43.66803 | 7.22418 | 21 ft | 16 kts | 150° |
| 2026-05-08 09:41 | 43.66715 | 7.22536 | 21 ft | 18 kts | 135° |
| 2026-05-08 09:41 | 43.66635 | 7.22645 | 22 ft | 9 kts | 135° |
| 2026-05-08 09:41 | 43.66591 | 7.22704 | 22 ft | 9 kts | 136° |
| 2026-05-08 09:42 | 43.66547 | 7.22763 | 23 ft | 9 kts | 136° |
| 2026-05-08 09:42 | 43.66521 | 7.22786 | 23 ft | 3 kts | 182° |
| 2026-05-08 09:42 | 43.66500 | 7.22761 | 25 ft | 5 kts | 225° |
| 2026-05-08 09:42 | 43.66467 | 7.22715 | 23 ft | 8 kts | 225° |
| 2026-05-08 09:43 | 43.66341 | 7.22544 | 24 ft | 58 kts | 224° |
| 2026-05-08 09:43 | 43.65887 | 7.21922 | 23 ft | 123 kts | 225° |
| 2026-05-08 09:43 | 43.65185 | 7.20961 | 204 ft | 156 kts | 223° |
| 2026-05-08 09:43 | 43.64368 | 7.19872 | 786 ft | 163 kts | 224° |
| 2026-05-08 09:44 | 43.63558 | 7.18793 | 1409 ft | 164 kts | 226° |
| 2026-05-08 09:44 | 43.62740 | 7.17676 | 1999 ft | 169 kts | 230° |
| 2026-05-08 09:44 | 43.62438 | 7.16080 | 2408 ft | 185 kts | 276° |
| 2026-05-08 09:44 | 43.62944 | 7.14377 | 2793 ft | 205 kts | 308° |
| 2026-05-08 09:45 | 43.64007 | 7.12884 | 3116 ft | 233 kts | 317° |
| 2026-05-08 09:45 | 43.65280 | 7.11324 | 3653 ft | 256 kts | 320° |
| 2026-05-08 09:45 | 43.66668 | 7.09650 | 4272 ft | 272 kts | 320° |
| 2026-05-08 09:45 | 43.68114 | 7.07896 | 5098 ft | 281 kts | 320° |
| 2026-05-08 09:46 | 43.69588 | 7.06112 | 5882 ft | 290 kts | 320° |
| 2026-05-08 09:46 | 43.71121 | 7.04245 | 6728 ft | 296 kts | 320° |
| 2026-05-08 09:46 | 43.72663 | 7.02353 | 7693 ft | 297 kts | 320° |
| 2026-05-08 09:46 | 43.74198 | 7.00437 | 8728 ft | 296 kts | 319° |
| 2026-05-08 09:47 | 43.75717 | 6.98518 | 9765 ft | 295 kts | 318° |
| 2026-05-08 09:47 | 43.77209 | 6.96560 | 10556 ft | 303 kts | 317° |
| 2026-05-08 09:47 | 43.78791 | 6.94474 | 10853 ft | 326 kts | 317° |
| 2026-05-08 09:47 | 43.80475 | 6.92272 | 11419 ft | 337 kts | 317° |
| 2026-05-08 09:48 | 43.82198 | 6.90040 | 12193 ft | 341 kts | 317° |
| 2026-05-08 09:48 | 43.83940 | 6.87799 | 12977 ft | 344 kts | 316° |
| 2026-05-08 09:48 | 43.85688 | 6.85564 | 13748 ft | 347 kts | 316° |
| 2026-05-08 09:48 | 43.87471 | 6.83289 | 14447 ft | 351 kts | 316° |
| 2026-05-08 09:49 | 43.89272 | 6.80986 | 15120 ft | 354 kts | 315° |
| 2026-05-08 09:49 | 43.91087 | 6.78661 | 15799 ft | 356 kts | 316° |
| 2026-05-08 09:49 | 43.92917 | 6.76316 | 16452 ft | 360 kts | 315° |
| 2026-05-08 09:49 | 43.94897 | 6.74174 | 17092 ft | 365 kts | 326° |
| 2026-05-08 09:50 | 43.97104 | 6.72397 | 17751 ft | 368 kts | 328° |
| 2026-05-08 09:50 | 43.99337 | 6.70624 | 18425 ft | 371 kts | 328° |
| 2026-05-08 09:50 | 44.01592 | 6.68826 | 19003 ft | 375 kts | 328° |
| 2026-05-08 09:50 | 44.03860 | 6.67008 | 19575 ft | 378 kts | 327° |
| 2026-05-08 09:51 | 44.06111 | 6.65194 | 20146 ft | 381 kts | 327° |
| 2026-05-08 09:51 | 44.08416 | 6.63333 | 20721 ft | 385 kts | 327° |
| 2026-05-08 09:51 | 44.10744 | 6.61450 | 21211 ft | 389 kts | 327° |
| 2026-05-08 09:51 | 44.13097 | 6.59551 | 21771 ft | 392 kts | 327° |
| 2026-05-08 09:52 | 44.15469 | 6.57639 | 22319 ft | 396 kts | 326° |
| 2026-05-08 09:52 | 44.17862 | 6.55708 | 22869 ft | 399 kts | 326° |
| 2026-05-08 09:52 | 44.20273 | 6.53758 | 23398 ft | 402 kts | 326° |
| 2026-05-08 09:52 | 44.22669 | 6.51818 | 23858 ft | 406 kts | 326° |
| 2026-05-08 09:53 | 44.24827 | 6.50071 | 24287 ft | 408 kts | 326° |
| 2026-05-08 09:53 | 44.26681 | 6.48572 | 24616 ft | 410 kts | 326° |
| 2026-05-08 09:53 | 44.29156 | 6.46571 | 25070 ft | 413 kts | 326° |
| 2026-05-08 09:53 | 44.31651 | 6.44549 | 25514 ft | 416 kts | 326° |
| 2026-05-08 09:54 | 44.34161 | 6.42514 | 25971 ft | 418 kts | 326° |
| 2026-05-08 09:54 | 44.36680 | 6.40463 | 26408 ft | 420 kts | 326° |
| 2026-05-08 09:54 | 44.39214 | 6.38396 | 26856 ft | 423 kts | 326° |
| 2026-05-08 09:54 | 44.41761 | 6.36319 | 27296 ft | 425 kts | 326° |
| 2026-05-08 09:55 | 44.45156 | 6.33548 | 27870 ft | 428 kts | 326° |
| 2026-05-08 09:55 | 44.46862 | 6.32152 | 28119 ft | 430 kts | 326° |
| 2026-05-08 09:55 | 44.49457 | 6.30027 | 28521 ft | 433 kts | 326° |
| 2026-05-08 09:55 | 44.52061 | 6.27893 | 28916 ft | 435 kts | 326° |
| 2026-05-08 09:56 | 44.54683 | 6.25742 | 29292 ft | 438 kts | 326° |
| 2026-05-08 09:56 | 44.57317 | 6.23581 | 29678 ft | 440 kts | 326° |
| 2026-05-08 09:56 | 44.59967 | 6.21405 | 30069 ft | 443 kts | 326° |
| 2026-05-08 09:56 | 44.62631 | 6.19217 | 30392 ft | 445 kts | 326° |
| 2026-05-08 09:57 | 44.67980 | 6.14820 | 31090 ft | 446 kts | 325° |
| 2026-05-08 09:57 | 44.70622 | 6.12648 | 31451 ft | 447 kts | 325° |
| 2026-05-08 09:57 | 44.73303 | 6.10437 | 31885 ft | 445 kts | 325° |
| 2026-05-08 09:58 | 44.75961 | 6.08241 | 32395 ft | 441 kts | 325° |
| 2026-05-08 09:58 | 44.78591 | 6.06071 | 33005 ft | 435 kts | 325° |
| 2026-05-08 09:58 | 44.81182 | 6.03935 | 33614 ft | 430 kts | 324° |
| 2026-05-08 09:58 | 44.83751 | 6.01808 | 33981 ft | 426 kts | 324° |
| 2026-05-08 09:59 | 44.88782 | 5.97632 | 34046 ft | 417 kts | 324° |
| 2026-05-08 09:59 | 44.93851 | 5.93392 | 34045 ft | 435 kts | 324° |
| 2026-05-08 10:00 | 44.99114 | 5.88994 | 34046 ft | 442 kts | 325° |
| 2026-05-08 10:00 | 45.04416 | 5.84572 | 34067 ft | 443 kts | 325° |
| 2026-05-08 10:01 | 45.09727 | 5.80083 | 34046 ft | 446 kts | 324° |
| 2026-05-08 10:01 | 45.14942 | 5.75343 | 34041 ft | 444 kts | 322° |
| 2026-05-08 10:02 | 45.20087 | 5.70524 | 34048 ft | 443 kts | 322° |
| 2026-05-08 10:02 | 45.25203 | 5.65775 | 34071 ft | 443 kts | 323° |
| 2026-05-08 10:03 | 45.30378 | 5.61025 | 34051 ft | 443 kts | 323° |
| 2026-05-08 10:03 | 45.35554 | 5.56264 | 34054 ft | 443 kts | 323° |
| 2026-05-08 10:04 | 45.40725 | 5.51481 | 34046 ft | 443 kts | 323° |
| 2026-05-08 10:04 | 45.45893 | 5.46694 | 34074 ft | 444 kts | 323° |
| 2026-05-08 10:05 | 45.51269 | 5.42427 | 34054 ft | 449 kts | 333° |
| 2026-05-08 10:05 | 45.57002 | 5.38902 | 34060 ft | 448 kts | 333° |
| 2026-05-08 10:06 | 45.62713 | 5.35372 | 34060 ft | 447 kts | 333° |
| 2026-05-08 10:06 | 45.68414 | 5.31827 | 34069 ft | 447 kts | 333° |
| 2026-05-08 10:07 | 45.74082 | 5.28297 | 34063 ft | 447 kts | 333° |
| 2026-05-08 10:07 | 45.79791 | 5.24737 | 34060 ft | 448 kts | 333° |
| 2026-05-08 10:08 | 45.85502 | 5.21178 | 34077 ft | 448 kts | 333° |
| 2026-05-08 10:08 | 45.91213 | 5.17602 | 34050 ft | 448 kts | 333° |
| 2026-05-08 10:09 | 45.96929 | 5.14009 | 34036 ft | 449 kts | 333° |
| 2026-05-08 10:09 | 46.02598 | 5.10440 | 34062 ft | 446 kts | 333° |
| 2026-05-08 10:10 | 46.08265 | 5.06855 | 34071 ft | 444 kts | 333° |
| 2026-05-08 10:10 | 46.13917 | 5.03259 | 34061 ft | 444 kts | 333° |
| 2026-05-08 10:11 | 46.19523 | 4.99685 | 34056 ft | 443 kts | 333° |
| 2026-05-08 10:11 | 46.25162 | 4.96076 | 34052 ft | 443 kts | 333° |
| 2026-05-08 10:12 | 46.30812 | 4.92466 | 34049 ft | 444 kts | 333° |
| 2026-05-08 10:12 | 46.36467 | 4.88840 | 34041 ft | 445 kts | 333° |
| 2026-05-08 10:13 | 46.42132 | 4.85195 | 34039 ft | 445 kts | 333° |
| 2026-05-08 10:13 | 46.47757 | 4.81566 | 34058 ft | 445 kts | 333° |
| 2026-05-08 10:14 | 46.53399 | 4.77914 | 34065 ft | 443 kts | 333° |
| 2026-05-08 10:14 | 46.59023 | 4.74274 | 34063 ft | 442 kts | 333° |
| 2026-05-08 10:15 | 46.64635 | 4.70644 | 34060 ft | 441 kts | 333° |
| 2026-05-08 10:15 | 46.70244 | 4.67001 | 34057 ft | 441 kts | 333° |
| 2026-05-08 10:16 | 46.75806 | 4.63369 | 34054 ft | 441 kts | 333° |
| 2026-05-08 10:16 | 46.81396 | 4.59708 | 34051 ft | 440 kts | 333° |
| 2026-05-08 10:17 | 46.86989 | 4.56054 | 34047 ft | 440 kts | 333° |
| 2026-05-08 10:17 | 46.92592 | 4.52418 | 34042 ft | 441 kts | 333° |
| 2026-05-08 10:18 | 46.98171 | 4.48797 | 34041 ft | 442 kts | 333° |
| 2026-05-08 10:18 | 47.03786 | 4.45127 | 34049 ft | 441 kts | 333° |
| 2026-05-08 10:19 | 47.09386 | 4.41449 | 34047 ft | 441 kts | 333° |
| 2026-05-08 10:20 | 47.17748 | 4.35943 | 34042 ft | 441 kts | 333° |
| 2026-05-08 10:20 | 47.23351 | 4.32258 | 34038 ft | 441 kts | 333° |
| 2026-05-08 10:21 | 47.28956 | 4.28567 | 34033 ft | 441 kts | 333° |
| 2026-05-08 10:21 | 47.34560 | 4.24860 | 34041 ft | 442 kts | 333° |
| 2026-05-08 10:22 | 47.40134 | 4.21159 | 34041 ft | 443 kts | 333° |
| 2026-05-08 10:22 | 47.45748 | 4.17425 | 34041 ft | 443 kts | 333° |
| 2026-05-08 10:23 | 47.51365 | 4.13666 | 34042 ft | 443 kts | 332° |
| 2026-05-08 10:23 | 47.56990 | 4.09903 | 34042 ft | 444 kts | 333° |
| 2026-05-08 10:24 | 47.62628 | 4.06151 | 34035 ft | 444 kts | 333° |
| 2026-05-08 10:24 | 47.68269 | 4.02380 | 34040 ft | 445 kts | 333° |
| 2026-05-08 10:25 | 47.73869 | 3.98615 | 34047 ft | 445 kts | 333° |
| 2026-05-08 10:25 | 47.79511 | 3.94811 | 34041 ft | 446 kts | 333° |
| 2026-05-08 10:26 | 47.85169 | 3.91002 | 34040 ft | 446 kts | 333° |
| 2026-05-08 10:26 | 47.90826 | 3.87186 | 34046 ft | 447 kts | 333° |
| 2026-05-08 10:27 | 47.96447 | 3.83367 | 34056 ft | 447 kts | 333° |
| 2026-05-08 10:27 | 48.02107 | 3.79507 | 34048 ft | 448 kts | 333° |
| 2026-05-08 10:28 | 48.07788 | 3.75636 | 34048 ft | 448 kts | 333° |
| 2026-05-08 10:28 | 48.13452 | 3.71724 | 34045 ft | 448 kts | 329° |
| 2026-05-08 10:29 | 48.18271 | 3.66113 | 34052 ft | 441 kts | 310° |
| 2026-05-08 10:29 | 48.22427 | 3.59334 | 34046 ft | 442 kts | 310° |
| 2026-05-08 10:30 | 48.26594 | 3.52562 | 34045 ft | 442 kts | 310° |
| 2026-05-08 10:30 | 48.30764 | 3.45768 | 34049 ft | 442 kts | 310° |
| 2026-05-08 10:31 | 48.34930 | 3.38967 | 34060 ft | 442 kts | 310° |
| 2026-05-08 10:31 | 48.39088 | 3.32234 | 34077 ft | 443 kts | 314° |
| 2026-05-08 10:31 | 48.41515 | 3.29349 | 34067 ft | 447 kts | 325° |
| 2026-05-08 10:32 | 48.44275 | 3.27178 | 34058 ft | 451 kts | 334° |
| 2026-05-08 10:32 | 48.50067 | 3.23510 | 34057 ft | 452 kts | 334° |
| 2026-05-08 10:33 | 48.55860 | 3.19821 | 34065 ft | 452 kts | 334° |
| 2026-05-08 10:33 | 48.61614 | 3.16147 | 34070 ft | 452 kts | 334° |
| 2026-05-08 10:34 | 48.67413 | 3.12418 | 34061 ft | 453 kts | 334° |
| 2026-05-08 10:34 | 48.73216 | 3.08665 | 34052 ft | 454 kts | 334° |
| 2026-05-08 10:35 | 48.79029 | 3.04906 | 34068 ft | 454 kts | 334° |
| 2026-05-08 10:35 | 48.84816 | 3.01071 | 34071 ft | 452 kts | 329° |
| 2026-05-08 10:36 | 48.90224 | 2.96364 | 34075 ft | 451 kts | 327° |
| 2026-05-08 10:36 | 48.95655 | 2.91611 | 34071 ft | 450 kts | 327° |
| 2026-05-08 10:37 | 49.01089 | 2.86850 | 34073 ft | 450 kts | 327° |
| 2026-05-08 10:37 | 49.06518 | 2.82085 | 34081 ft | 450 kts | 327° |
| 2026-05-08 10:38 | 49.11898 | 2.77342 | 34091 ft | 449 kts | 327° |
| 2026-05-08 10:38 | 49.17308 | 2.72555 | 34095 ft | 449 kts | 327° |
| 2026-05-08 10:39 | 49.22712 | 2.67771 | 34085 ft | 449 kts | 327° |
| 2026-05-08 10:39 | 49.28111 | 2.62985 | 34102 ft | 448 kts | 327° |
| 2026-05-08 10:40 | 49.33435 | 2.58247 | 34094 ft | 447 kts | 327° |
| 2026-05-08 10:40 | 49.38778 | 2.53477 | 34100 ft | 447 kts | 327° |
| 2026-05-08 10:41 | 49.44150 | 2.48672 | 34092 ft | 447 kts | 327° |
| 2026-05-08 10:41 | 49.49515 | 2.43856 | 34083 ft | 447 kts | 327° |
| 2026-05-08 10:42 | 49.54451 | 2.38143 | 34073 ft | 444 kts | 317° |
| 2026-05-08 10:42 | 49.59105 | 2.31964 | 34065 ft | 445 kts | 317° |
| 2026-05-08 10:43 | 49.63802 | 2.25732 | 34064 ft | 446 kts | 317° |
| 2026-05-08 10:43 | 49.68498 | 2.19487 | 34086 ft | 445 kts | 317° |
| 2026-05-08 10:44 | 49.73168 | 2.13235 | 34110 ft | 444 kts | 317° |
| 2026-05-08 10:44 | 49.77839 | 2.06975 | 34087 ft | 444 kts | 317° |
| 2026-05-08 10:45 | 49.82475 | 2.00746 | 34081 ft | 444 kts | 317° |
| 2026-05-08 10:45 | 49.87141 | 1.94464 | 34084 ft | 444 kts | 317° |
| 2026-05-08 10:46 | 49.91804 | 1.88165 | 34083 ft | 444 kts | 317° |
| 2026-05-08 10:46 | 49.96459 | 1.81849 | 34096 ft | 445 kts | 317° |
| 2026-05-08 10:47 | 50.01112 | 1.75525 | 34101 ft | 444 kts | 317° |
| 2026-05-08 10:47 | 50.05725 | 1.69248 | 34105 ft | 443 kts | 317° |
| 2026-05-08 10:48 | 50.10363 | 1.62941 | 34101 ft | 443 kts | 317° |
| 2026-05-08 10:48 | 50.15013 | 1.56636 | 34105 ft | 442 kts | 317° |
| 2026-05-08 10:49 | 50.19653 | 1.50342 | 34111 ft | 442 kts | 317° |
| 2026-05-08 10:49 | 50.24290 | 1.44020 | 34112 ft | 442 kts | 317° |
| 2026-05-08 10:50 | 50.28891 | 1.37728 | 34097 ft | 442 kts | 318° |
| 2026-05-08 10:50 | 50.33505 | 1.31398 | 34127 ft | 440 kts | 318° |
| 2026-05-08 10:51 | 50.38097 | 1.25082 | 34132 ft | 438 kts | 318° |
| 2026-05-08 10:51 | 50.42666 | 1.18785 | 34137 ft | 437 kts | 318° |
| 2026-05-08 10:52 | 50.47223 | 1.12483 | 34126 ft | 437 kts | 318° |
| 2026-05-08 10:52 | 50.51748 | 1.06216 | 34128 ft | 437 kts | 318° |
| 2026-05-08 10:53 | 50.56451 | 1.00172 | 34121 ft | 437 kts | 321° |
| 2026-05-08 10:53 | 50.61276 | 0.94355 | 34121 ft | 437 kts | 322° |
| 2026-05-08 10:54 | 50.66078 | 0.88528 | 34144 ft | 434 kts | 321° |
| 2026-05-08 10:54 | 50.70774 | 0.82682 | 34143 ft | 431 kts | 321° |
| 2026-05-08 10:55 | 50.75454 | 0.76786 | 34138 ft | 429 kts | 321° |
| 2026-05-08 10:55 | 50.80122 | 0.70932 | 34132 ft | 428 kts | 321° |
| 2026-05-08 10:56 | 50.84787 | 0.65088 | 34132 ft | 427 kts | 321° |
| 2026-05-08 10:56 | 50.89438 | 0.59226 | 34104 ft | 427 kts | 321° |
| 2026-05-08 10:57 | 50.94052 | 0.53395 | 34072 ft | 426 kts | 321° |
| 2026-05-08 10:57 | 51.00990 | 0.44599 | 34034 ft | 424 kts | 321° |
| 2026-05-08 10:58 | 51.05579 | 0.38759 | 34022 ft | 421 kts | 321° |
| 2026-05-08 10:58 | 51.10131 | 0.32967 | 34004 ft | 418 kts | 321° |
| 2026-05-08 10:59 | 51.14660 | 0.27197 | 34005 ft | 416 kts | 321° |
| 2026-05-08 10:59 | 51.19138 | 0.21458 | 34018 ft | 415 kts | 321° |
| 2026-05-08 11:00 | 51.23633 | 0.15684 | 34034 ft | 414 kts | 321° |
| 2026-05-08 11:00 | 51.28113 | 0.09907 | 34058 ft | 414 kts | 321° |
| 2026-05-08 11:01 | 51.32234 | 0.03518 | 34082 ft | 415 kts | 306° |
| 2026-05-08 11:01 | 51.33643 | -0.00514 | 34119 ft | 418 kts | 295° |
| 2026-05-08 11:01 | 51.34523 | -0.04946 | 34109 ft | 420 kts | 287° |
| 2026-05-08 11:02 | 51.36759 | -0.18402 | 34118 ft | 419 kts | 288° |
| 2026-05-08 11:03 | 51.38264 | -0.27399 | 34042 ft | 418 kts | 288° |
| 2026-05-08 11:03 | 51.39017 | -0.31893 | 33710 ft | 419 kts | 288° |
| 2026-05-08 11:03 | 51.39773 | -0.36411 | 33217 ft | 421 kts | 288° |
| 2026-05-08 11:03 | 51.40529 | -0.40945 | 32712 ft | 423 kts | 287° |
| 2026-05-08 11:04 | 51.41288 | -0.45525 | 32205 ft | 427 kts | 287° |
| 2026-05-08 11:04 | 51.42045 | -0.50139 | 31713 ft | 430 kts | 287° |
| 2026-05-08 11:04 | 51.42805 | -0.54789 | 31228 ft | 433 kts | 287° |
| 2026-05-08 11:04 | 51.43570 | -0.59480 | 30749 ft | 437 kts | 287° |
| 2026-05-08 11:05 | 51.44329 | -0.64145 | 30295 ft | 440 kts | 287° |
| 2026-05-08 11:05 | 51.45106 | -0.68916 | 29763 ft | 444 kts | 287° |
| 2026-05-08 11:05 | 51.45887 | -0.73713 | 29212 ft | 446 kts | 287° |
| 2026-05-08 11:05 | 51.46672 | -0.78534 | 28681 ft | 447 kts | 286° |
| 2026-05-08 11:06 | 51.47452 | -0.83352 | 28163 ft | 446 kts | 286° |
| 2026-05-08 11:06 | 51.48227 | -0.88162 | 27645 ft | 444 kts | 286° |
| 2026-05-08 11:06 | 51.48990 | -0.92926 | 27143 ft | 441 kts | 285° |
| 2026-05-08 11:06 | 51.49750 | -0.97699 | 26636 ft | 439 kts | 285° |
| 2026-05-08 11:07 | 51.50500 | -1.02426 | 26199 ft | 435 kts | 285° |
| 2026-05-08 11:07 | 51.51243 | -1.07131 | 26053 ft | 434 kts | 285° |
| 2026-05-08 11:07 | 51.51984 | -1.11836 | 26086 ft | 435 kts | 285° |
| 2026-05-08 11:07 | 51.52716 | -1.16487 | 26058 ft | 436 kts | 284° |
| 2026-05-08 11:08 | 51.53396 | -1.21230 | 25651 ft | 434 kts | 282° |
| 2026-05-08 11:08 | 51.53984 | -1.25959 | 25257 ft | 432 kts | 281° |
| 2026-05-08 11:08 | 51.54520 | -1.30715 | 24850 ft | 430 kts | 280° |
| 2026-05-08 11:08 | 51.55031 | -1.35436 | 24447 ft | 428 kts | 280° |
| 2026-05-08 11:09 | 51.55543 | -1.40133 | 24048 ft | 426 kts | 280° |
| 2026-05-08 11:09 | 51.56062 | -1.44812 | 23645 ft | 424 kts | 281° |
| 2026-05-08 11:09 | 51.56591 | -1.49459 | 23213 ft | 421 kts | 280° |
| 2026-05-08 11:09 | 51.57126 | -1.54069 | 22823 ft | 418 kts | 280° |
| 2026-05-08 11:10 | 51.57654 | -1.58589 | 22430 ft | 416 kts | 280° |
| 2026-05-08 11:10 | 51.58186 | -1.63143 | 22046 ft | 412 kts | 280° |
| 2026-05-08 11:10 | 51.58683 | -1.67658 | 21661 ft | 410 kts | 278° |
| 2026-05-08 11:10 | 51.59082 | -1.72183 | 21276 ft | 409 kts | 276° |
| 2026-05-08 11:11 | 51.59410 | -1.76717 | 20892 ft | 408 kts | 275° |
| 2026-05-08 11:11 | 51.59701 | -1.81244 | 20508 ft | 407 kts | 275° |
| 2026-05-08 11:11 | 51.59983 | -1.85756 | 20127 ft | 404 kts | 275° |
| 2026-05-08 11:11 | 51.60270 | -1.90247 | 19747 ft | 403 kts | 274° |
| 2026-05-08 11:12 | 51.60568 | -1.94714 | 19370 ft | 401 kts | 275° |
| 2026-05-08 11:12 | 51.60869 | -1.99171 | 18987 ft | 401 kts | 273° |
| 2026-05-08 11:12 | 51.60744 | -2.03612 | 18613 ft | 397 kts | 257° |
| 2026-05-08 11:12 | 51.59876 | -2.07714 | 18229 ft | 392 kts | 241° |
| 2026-05-08 11:13 | 51.58350 | -2.11304 | 17846 ft | 388 kts | 230° |
| 2026-05-08 11:13 | 51.56663 | -2.14681 | 17482 ft | 386 kts | 230° |
| 2026-05-08 11:13 | 51.54982 | -2.18036 | 17114 ft | 385 kts | 230° |
| 2026-05-08 11:13 | 51.53308 | -2.21378 | 16755 ft | 383 kts | 230° |
| 2026-05-08 11:14 | 51.51645 | -2.24702 | 16392 ft | 381 kts | 230° |
| 2026-05-08 11:14 | 51.49990 | -2.28013 | 16032 ft | 379 kts | 230° |
| 2026-05-08 11:14 | 51.48349 | -2.31299 | 15673 ft | 377 kts | 230° |
| 2026-05-08 11:14 | 51.46713 | -2.34567 | 15318 ft | 374 kts | 230° |
| 2026-05-08 11:15 | 51.45085 | -2.37807 | 14969 ft | 372 kts | 230° |
| 2026-05-08 11:15 | 51.43489 | -2.40983 | 14630 ft | 370 kts | 230° |
| 2026-05-08 11:15 | 51.41892 | -2.44206 | 14275 ft | 368 kts | 233° |
| 2026-05-08 11:15 | 51.40711 | -2.47830 | 13933 ft | 368 kts | 250° |
| 2026-05-08 11:16 | 51.40165 | -2.51833 | 13564 ft | 368 kts | 259° |
| 2026-05-08 11:16 | 51.39757 | -2.55861 | 13214 ft | 366 kts | 259° |
| 2026-05-08 11:16 | 51.39353 | -2.59880 | 12874 ft | 364 kts | 259° |
| 2026-05-08 11:16 | 51.38947 | -2.63867 | 12526 ft | 362 kts | 259° |
| 2026-05-08 11:17 | 51.38541 | -2.67832 | 12192 ft | 360 kts | 259° |
| 2026-05-08 11:17 | 51.38183 | -2.71780 | 11846 ft | 359 kts | 265° |
| 2026-05-08 11:17 | 51.38227 | -2.75714 | 11528 ft | 358 kts | 270° |
| 2026-05-08 11:17 | 51.38318 | -2.79680 | 11193 ft | 356 kts | 270° |
| 2026-05-08 11:18 | 51.38404 | -2.83632 | 10856 ft | 354 kts | 270° |
| 2026-05-08 11:18 | 51.38484 | -2.87551 | 10534 ft | 352 kts | 270° |
| 2026-05-08 11:18 | 51.38561 | -2.91454 | 10201 ft | 349 kts | 269° |
| 2026-05-08 11:18 | 51.38635 | -2.95324 | 9868 ft | 347 kts | 269° |
| 2026-05-08 11:19 | 51.38707 | -2.99178 | 9527 ft | 346 kts | 269° |
| 2026-05-08 11:19 | 51.38781 | -3.03026 | 9208 ft | 345 kts | 269° |
| 2026-05-08 11:19 | 51.38854 | -3.06856 | 8886 ft | 343 kts | 269° |
| 2026-05-08 11:19 | 51.38925 | -3.10554 | 8575 ft | 330 kts | 269° |
| 2026-05-08 11:20 | 51.38995 | -3.14162 | 8273 ft | 319 kts | 269° |
| 2026-05-08 11:20 | 51.39060 | -3.17648 | 7981 ft | 308 kts | 269° |
| 2026-05-08 11:20 | 51.39123 | -3.21024 | 7701 ft | 299 kts | 269° |
| 2026-05-08 11:20 | 51.39179 | -3.24309 | 7425 ft | 292 kts | 269° |
| 2026-05-08 11:21 | 51.39233 | -3.27523 | 7163 ft | 285 kts | 269° |
| 2026-05-08 11:21 | 51.39287 | -3.30639 | 7028 ft | 275 kts | 269° |
| 2026-05-08 11:21 | 51.39339 | -3.33671 | 6878 ft | 271 kts | 269° |
| 2026-05-08 11:21 | 51.39363 | -3.36680 | 6736 ft | 270 kts | 268° |
| 2026-05-08 11:22 | 51.39386 | -3.39675 | 6611 ft | 269 kts | 268° |
| 2026-05-08 11:22 | 51.39409 | -3.42643 | 6256 ft | 270 kts | 268° |
| 2026-05-08 11:22 | 51.39434 | -3.45634 | 5879 ft | 268 kts | 268° |
| 2026-05-08 11:22 | 51.39456 | -3.48622 | 5528 ft | 267 kts | 268° |
| 2026-05-08 11:23 | 51.39809 | -3.51534 | 5163 ft | 270 kts | 292° |
| 2026-05-08 11:23 | 51.40731 | -3.54174 | 4737 ft | 273 kts | 300° |
| 2026-05-08 11:23 | 51.41738 | -3.56764 | 4294 ft | 275 kts | 300° |
| 2026-05-08 11:23 | 51.42786 | -3.59335 | 3859 ft | 277 kts | 306° |
| 2026-05-08 11:24 | 51.44290 | -3.61253 | 3414 ft | 280 kts | 335° |
| 2026-05-08 11:24 | 51.46163 | -3.61841 | 2975 ft | 274 kts | 5° |
| 2026-05-08 11:24 | 51.47890 | -3.60844 | 2538 ft | 262 kts | 41° |
| 2026-05-08 11:24 | 51.48851 | -3.58576 | 2107 ft | 245 kts | 79° |
| 2026-05-08 11:25 | 51.48692 | -3.56048 | 1970 ft | 219 kts | 121° |
| 2026-05-08 11:25 | 51.47633 | -3.54469 | 1977 ft | 200 kts | 150° |
| 2026-05-08 11:25 | 51.46504 | -3.53335 | 1991 ft | 184 kts | 147° |
| 2026-05-08 11:25 | 51.45549 | -3.52055 | 1993 ft | 177 kts | 133° |
| 2026-05-08 11:26 | 51.44833 | -3.50456 | 1983 ft | 176 kts | 124° |
| 2026-05-08 11:26 | 51.44228 | -3.48757 | 1953 ft | 174 kts | 120° |
| 2026-05-08 11:26 | 51.43682 | -3.47087 | 1811 ft | 164 kts | 120° |
| 2026-05-08 11:26 | 51.43185 | -3.45525 | 1620 ft | 157 kts | 119° |
| 2026-05-08 11:27 | 51.42694 | -3.43971 | 1416 ft | 155 kts | 118° |
| 2026-05-08 11:27 | 51.42207 | -3.42428 | 1209 ft | 154 kts | 117° |
| 2026-05-08 11:27 | 51.41732 | -3.40918 | 1000 ft | 149 kts | 116° |
| 2026-05-08 11:27 | 51.41468 | -3.40081 | 880 ft | 144 kts | 116° |
| 2026-05-08 11:28 | 51.41033 | -3.38761 | 674 ft | 137 kts | 116° |
| 2026-05-08 11:28 | 51.40620 | -3.37432 | 483 ft | 132 kts | 114° |
| 2026-05-08 11:28 | 51.40221 | -3.36119 | 317 ft | 129 kts | 116° |
| 2026-05-08 11:28 | 51.39823 | -3.34850 | 222 ft | 118 kts | 117° |
| 2026-05-08 11:29 | 51.39555 | -3.33996 | 223 ft | 43 kts | 117° |
| 2026-05-08 11:29 | 51.39464 | -3.33707 | 223 ft | 27 kts | 116° |
| 2026-05-08 11:29 | 51.39381 | -3.33449 | 226 ft | 25 kts | 117° |
| 2026-05-08 11:29 | 51.39307 | -3.33212 | 223 ft | 18 kts | 117° |
| 2026-05-08 11:30 | 51.39326 | -3.33091 | 223 ft | 13 kts | 26° |
| 2026-05-08 11:30 | 51.39417 | -3.33039 | 220 ft | 15 kts | 346° |
| 2026-05-08 11:30 | 51.39480 | -3.33173 | 222 ft | 15 kts | 297° |
| 2026-05-08 11:30 | 51.39532 | -3.33323 | 220 ft | 17 kts | 300° |
| 2026-05-08 11:31 | 51.39583 | -3.33493 | 223 ft | 17 kts | 295° |
| 2026-05-08 11:31 | 51.39638 | -3.33669 | 222 ft | 19 kts | 297° |
| 2026-05-08 11:31 | 51.39696 | -3.33852 | 220 ft | 18 kts | 295° |
| 2026-05-08 11:31 | 51.39751 | -3.34030 | 221 ft | 18 kts | 297° |
| 2026-05-08 11:32 | 51.39784 | -3.34132 | 225 ft | 0 kts | 297° |
| 2026-05-08 11:32 | 51.39784 | -3.34133 | 225 ft | 0 kts | 297° |
| 2026-05-08 11:32 | 51.39801 | -3.34154 | 224 ft | 5 kts | 348° |
| 2026-05-08 11:32 | 51.39833 | -3.34113 | 223 ft | 7 kts | 64° |
| 2026-05-08 11:33 | 51.39836 | -3.34066 | 224 ft | 2 kts | 82° |
| 2026-05-08 11:33 | 51.39837 | -3.34063 | 224 ft | 0 kts | 82° |